You are not logged in, Click here to log in
ICAO: LFMN Country: 法國-尼斯
Latitude: 43.6584 Longitude: 7.21587
Total Arrivals: 3 Total Departures: 3
Latest Arrival: OS425 (LOWW-LFMN)Arthur. Kung Latest Departure: NI481 (LFMN-LPPT)Arthur. Kung
Scenery: https://zh.wikipedia.org/wiki/%E5%B0%BC%E6%96%AF%E8%93%9D%E8%89%B2%E6%B5%B7%E5%B2%B8%E6%9C%BA%E5%9C%BA
METAR : LFMN 210730Z 05004KT 9999 BKN018 SCT260 26/17 Q1018 NOSIG

尼斯藍色海岸機場NCE